sensor_id;sensor_type;location;lat;lon;timestamp;P1;durP1;ratioP1;P2;durP2;ratioP2
20114;SDS011;10218;42.874;25.320;2023-07-22T00:00:59;14.27;;;6.07;;
20114;SDS011;10218;42.874;25.320;2023-07-22T00:03:27;10.13;;;5.67;;
20114;SDS011;10218;42.874;25.320;2023-07-22T00:06:08;12.10;;;6.30;;
20114;SDS011;10218;42.874;25.320;2023-07-22T00:08:37;12.90;;;6.20;;
20114;SDS011;10218;42.874;25.320;2023-07-22T00:11:05;8.13;;;5.90;;
20114;SDS011;10218;42.874;25.320;2023-07-22T00:13:32;9.17;;;5.83;;
20114;SDS011;10218;42.874;25.320;2023-07-22T00:16:00;10.77;;;6.17;;
20114;SDS011;10218;42.874;25.320;2023-07-22T00:18:28;14.77;;;6.60;;
20114;SDS011;10218;42.874;25.320;2023-07-22T00:20:55;12.57;;;6.33;;
20114;SDS011;10218;42.874;25.320;2023-07-22T00:23:23;11.60;;;6.33;;
20114;SDS011;10218;42.874;25.320;2023-07-22T00:25:51;15.43;;;7.10;;
20114;SDS011;10218;42.874;25.320;2023-07-22T00:28:17;15.07;;;6.27;;
20114;SDS011;10218;42.874;25.320;2023-07-22T00:30:45;9.53;;;6.20;;
20114;SDS011;10218;42.874;25.320;2023-07-22T00:33:12;10.17;;;6.00;;
20114;SDS011;10218;42.874;25.320;2023-07-22T00:35:40;14.90;;;6.60;;
20114;SDS011;10218;42.874;25.320;2023-07-22T00:38:07;15.97;;;7.30;;
20114;SDS011;10218;42.874;25.320;2023-07-22T00:40:36;13.93;;;6.37;;
20114;SDS011;10218;42.874;25.320;2023-07-22T00:43:04;13.13;;;6.30;;
20114;SDS011;10218;42.874;25.320;2023-07-22T00:45:31;12.13;;;6.57;;
20114;SDS011;10218;42.874;25.320;2023-07-22T00:47:59;15.27;;;7.10;;
20114;SDS011;10218;42.874;25.320;2023-07-22T00:50:26;12.27;;;7.20;;
20114;SDS011;10218;42.874;25.320;2023-07-22T00:52:54;12.53;;;6.07;;
20114;SDS011;10218;42.874;25.320;2023-07-22T00:55:21;10.00;;;6.50;;
20114;SDS011;10218;42.874;25.320;2023-07-22T00:57:49;16.67;;;7.10;;
20114;SDS011;10218;42.874;25.320;2023-07-22T01:00:16;12.43;;;6.50;;
20114;SDS011;10218;42.874;25.320;2023-07-22T01:02:43;12.67;;;6.70;;
20114;SDS011;10218;42.874;25.320;2023-07-22T01:05:10;20.70;;;7.17;;
20114;SDS011;10218;42.874;25.320;2023-07-22T01:07:39;14.70;;;7.07;;
20114;SDS011;10218;42.874;25.320;2023-07-22T01:10:07;11.17;;;6.77;;
20114;SDS011;10218;42.874;25.320;2023-07-22T01:12:35;14.93;;;6.67;;
20114;SDS011;10218;42.874;25.320;2023-07-22T01:15:03;14.10;;;6.93;;
20114;SDS011;10218;42.874;25.320;2023-07-22T01:17:34;12.23;;;6.23;;
20114;SDS011;10218;42.874;25.320;2023-07-22T01:20:06;12.77;;;6.53;;
20114;SDS011;10218;42.874;25.320;2023-07-22T01:22:34;16.73;;;7.30;;
20114;SDS011;10218;42.874;25.320;2023-07-22T01:25:01;17.07;;;6.83;;
20114;SDS011;10218;42.874;25.320;2023-07-22T01:27:29;12.97;;;6.73;;
20114;SDS011;10218;42.874;25.320;2023-07-22T01:29:56;15.90;;;7.33;;
20114;SDS011;10218;42.874;25.320;2023-07-22T01:32:23;11.27;;;7.40;;
20114;SDS011;10218;42.874;25.320;2023-07-22T01:34:50;10.40;;;6.83;;
20114;SDS011;10218;42.874;25.320;2023-07-22T01:37:17;13.93;;;6.97;;
20114;SDS011;10218;42.874;25.320;2023-07-22T01:39:45;11.57;;;6.90;;
20114;SDS011;10218;42.874;25.320;2023-07-22T01:42:12;11.80;;;7.37;;
20114;SDS011;10218;42.874;25.320;2023-07-22T01:44:39;15.40;;;6.80;;
20114;SDS011;10218;42.874;25.320;2023-07-22T01:47:07;13.87;;;6.77;;
20114;SDS011;10218;42.874;25.320;2023-07-22T01:49:34;18.10;;;6.70;;
20114;SDS011;10218;42.874;25.320;2023-07-22T01:52:01;10.70;;;6.83;;
20114;SDS011;10218;42.874;25.320;2023-07-22T01:54:28;13.50;;;6.87;;
20114;SDS011;10218;42.874;25.320;2023-07-22T01:56:55;11.03;;;6.90;;
20114;SDS011;10218;42.874;25.320;2023-07-22T01:59:22;11.77;;;6.67;;
20114;SDS011;10218;42.874;25.320;2023-07-22T02:01:49;11.57;;;6.77;;
20114;SDS011;10218;42.874;25.320;2023-07-22T02:04:17;15.57;;;7.10;;
20114;SDS011;10218;42.874;25.320;2023-07-22T02:06:44;11.83;;;6.63;;
20114;SDS011;10218;42.874;25.320;2023-07-22T02:09:11;11.13;;;6.27;;
20114;SDS011;10218;42.874;25.320;2023-07-22T02:11:40;14.00;;;7.27;;
20114;SDS011;10218;42.874;25.320;2023-07-22T02:14:07;14.77;;;7.23;;
20114;SDS011;10218;42.874;25.320;2023-07-22T02:16:34;10.63;;;6.80;;
20114;SDS011;10218;42.874;25.320;2023-07-22T02:19:03;22.33;;;6.93;;
20114;SDS011;10218;42.874;25.320;2023-07-22T02:21:35;11.03;;;7.30;;
20114;SDS011;10218;42.874;25.320;2023-07-22T02:24:02;12.53;;;7.00;;
20114;SDS011;10218;42.874;25.320;2023-07-22T02:26:29;14.10;;;6.87;;
20114;SDS011;10218;42.874;25.320;2023-07-22T02:28:56;12.00;;;7.77;;
20114;SDS011;10218;42.874;25.320;2023-07-22T02:31:23;14.70;;;7.10;;
20114;SDS011;10218;42.874;25.320;2023-07-22T02:33:50;12.53;;;7.23;;
20114;SDS011;10218;42.874;25.320;2023-07-22T02:36:18;13.83;;;7.10;;
20114;SDS011;10218;42.874;25.320;2023-07-22T02:38:45;16.43;;;7.03;;
20114;SDS011;10218;42.874;25.320;2023-07-22T02:41:12;12.33;;;7.80;;
20114;SDS011;10218;42.874;25.320;2023-07-22T02:43:39;12.70;;;7.50;;
20114;SDS011;10218;42.874;25.320;2023-07-22T02:46:07;13.63;;;7.77;;
20114;SDS011;10218;42.874;25.320;2023-07-22T02:48:37;10.87;;;8.13;;
20114;SDS011;10218;42.874;25.320;2023-07-22T02:51:08;12.67;;;8.13;;
20114;SDS011;10218;42.874;25.320;2023-07-22T02:53:36;18.40;;;7.70;;
20114;SDS011;10218;42.874;25.320;2023-07-22T02:56:04;19.60;;;7.70;;
20114;SDS011;10218;42.874;25.320;2023-07-22T02:58:33;15.87;;;7.93;;
20114;SDS011;10218;42.874;25.320;2023-07-22T03:01:00;13.60;;;7.37;;
20114;SDS011;10218;42.874;25.320;2023-07-22T03:03:29;16.53;;;8.43;;
20114;SDS011;10218;42.874;25.320;2023-07-22T03:06:00;12.47;;;7.93;;
20114;SDS011;10218;42.874;25.320;2023-07-22T03:08:27;16.10;;;7.50;;
20114;SDS011;10218;42.874;25.320;2023-07-22T03:10:55;15.03;;;7.60;;
20114;SDS011;10218;42.874;25.320;2023-07-22T03:13:22;12.47;;;7.93;;
20114;SDS011;10218;42.874;25.320;2023-07-22T03:15:49;13.07;;;7.40;;
20114;SDS011;10218;42.874;25.320;2023-07-22T03:18:16;11.20;;;6.90;;
20114;SDS011;10218;42.874;25.320;2023-07-22T03:20:43;10.83;;;7.33;;
20114;SDS011;10218;42.874;25.320;2023-07-22T03:23:10;17.00;;;8.47;;
20114;SDS011;10218;42.874;25.320;2023-07-22T03:25:38;13.90;;;7.17;;
20114;SDS011;10218;42.874;25.320;2023-07-22T03:28:05;12.63;;;7.20;;
20114;SDS011;10218;42.874;25.320;2023-07-22T03:30:33;12.53;;;7.80;;
20114;SDS011;10218;42.874;25.320;2023-07-22T03:33:00;13.00;;;8.30;;
20114;SDS011;10218;42.874;25.320;2023-07-22T03:35:27;16.57;;;7.73;;
20114;SDS011;10218;42.874;25.320;2023-07-22T03:37:55;11.93;;;8.27;;
20114;SDS011;10218;42.874;25.320;2023-07-22T03:40:22;12.33;;;7.67;;
20114;SDS011;10218;42.874;25.320;2023-07-22T03:42:53;18.03;;;8.43;;
20114;SDS011;10218;42.874;25.320;2023-07-22T03:45:23;13.10;;;8.50;;
20114;SDS011;10218;42.874;25.320;2023-07-22T03:47:51;21.00;;;9.20;;
20114;SDS011;10218;42.874;25.320;2023-07-22T03:50:19;13.73;;;9.20;;
20114;SDS011;10218;42.874;25.320;2023-07-22T03:52:47;19.13;;;9.13;;
20114;SDS011;10218;42.874;25.320;2023-07-22T03:55:14;17.23;;;8.47;;
20114;SDS011;10218;42.874;25.320;2023-07-22T03:57:41;20.60;;;8.70;;
20114;SDS011;10218;42.874;25.320;2023-07-22T04:00:08;14.80;;;8.70;;
20114;SDS011;10218;42.874;25.320;2023-07-22T04:02:37;18.40;;;8.97;;
20114;SDS011;10218;42.874;25.320;2023-07-22T04:05:05;14.67;;;8.03;;
20114;SDS011;10218;42.874;25.320;2023-07-22T04:07:33;19.90;;;8.07;;
20114;SDS011;10218;42.874;25.320;2023-07-22T04:10:00;14.57;;;8.20;;
20114;SDS011;10218;42.874;25.320;2023-07-22T04:12:28;17.73;;;7.80;;
20114;SDS011;10218;42.874;25.320;2023-07-22T04:14:55;12.70;;;7.30;;
20114;SDS011;10218;42.874;25.320;2023-07-22T04:17:22;12.23;;;7.53;;
20114;SDS011;10218;42.874;25.320;2023-07-22T04:19:53;13.83;;;9.03;;
20114;SDS011;10218;42.874;25.320;2023-07-22T04:22:20;13.57;;;8.20;;
20114;SDS011;10218;42.874;25.320;2023-07-22T04:24:48;19.93;;;8.93;;
20114;SDS011;10218;42.874;25.320;2023-07-22T04:27:16;14.53;;;8.83;;
20114;SDS011;10218;42.874;25.320;2023-07-22T04:29:45;12.63;;;8.43;;
20114;SDS011;10218;42.874;25.320;2023-07-22T04:32:12;14.63;;;8.03;;
20114;SDS011;10218;42.874;25.320;2023-07-22T04:34:39;16.50;;;8.40;;
20114;SDS011;10218;42.874;25.320;2023-07-22T04:37:07;14.90;;;8.50;;
20114;SDS011;10218;42.874;25.320;2023-07-22T04:39:34;16.83;;;8.63;;
20114;SDS011;10218;42.874;25.320;2023-07-22T04:42:01;19.23;;;9.27;;
20114;SDS011;10218;42.874;25.320;2023-07-22T04:44:28;15.53;;;9.50;;
20114;SDS011;10218;42.874;25.320;2023-07-22T04:46:55;16.53;;;9.27;;
20114;SDS011;10218;42.874;25.320;2023-07-22T04:49:22;15.60;;;9.03;;
20114;SDS011;10218;42.874;25.320;2023-07-22T04:51:49;16.57;;;9.73;;
20114;SDS011;10218;42.874;25.320;2023-07-22T04:54:17;14.67;;;9.73;;
20114;SDS011;10218;42.874;25.320;2023-07-22T04:56:45;19.07;;;9.63;;
20114;SDS011;10218;42.874;25.320;2023-07-22T04:59:12;15.63;;;9.20;;
20114;SDS011;10218;42.874;25.320;2023-07-22T05:01:40;16.23;;;9.13;;
20114;SDS011;10218;42.874;25.320;2023-07-22T05:04:08;14.77;;;8.80;;
20114;SDS011;10218;42.874;25.320;2023-07-22T05:06:35;15.40;;;8.53;;
20114;SDS011;10218;42.874;25.320;2023-07-22T05:09:03;19.50;;;9.80;;
20114;SDS011;10218;42.874;25.320;2023-07-22T05:11:30;17.70;;;8.90;;
20114;SDS011;10218;42.874;25.320;2023-07-22T05:13:57;13.30;;;8.77;;
20114;SDS011;10218;42.874;25.320;2023-07-22T05:16:25;16.80;;;8.60;;
20114;SDS011;10218;42.874;25.320;2023-07-22T05:18:52;14.97;;;9.07;;
20114;SDS011;10218;42.874;25.320;2023-07-22T05:21:19;14.70;;;8.33;;
20114;SDS011;10218;42.874;25.320;2023-07-22T05:23:46;11.97;;;7.70;;
20114;SDS011;10218;42.874;25.320;2023-07-22T05:26:14;13.00;;;8.33;;
20114;SDS011;10218;42.874;25.320;2023-07-22T05:28:41;11.37;;;7.83;;
20114;SDS011;10218;42.874;25.320;2023-07-22T05:31:08;16.27;;;8.03;;
20114;SDS011;10218;42.874;25.320;2023-07-22T05:33:35;17.07;;;7.97;;
20114;SDS011;10218;42.874;25.320;2023-07-22T05:36:03;16.27;;;8.30;;
20114;SDS011;10218;42.874;25.320;2023-07-22T05:38:31;13.00;;;7.80;;
20114;SDS011;10218;42.874;25.320;2023-07-22T05:40:58;13.40;;;7.37;;
20114;SDS011;10218;42.874;25.320;2023-07-22T05:43:25;17.30;;;7.87;;
20114;SDS011;10218;42.874;25.320;2023-07-22T05:45:52;19.67;;;8.40;;
20114;SDS011;10218;42.874;25.320;2023-07-22T05:48:20;11.87;;;7.53;;
20114;SDS011;10218;42.874;25.320;2023-07-22T05:50:48;13.57;;;8.10;;
20114;SDS011;10218;42.874;25.320;2023-07-22T05:53:15;13.40;;;8.00;;
20114;SDS011;10218;42.874;25.320;2023-07-22T05:55:42;17.80;;;8.07;;
20114;SDS011;10218;42.874;25.320;2023-07-22T05:58:16;12.20;;;7.93;;
20114;SDS011;10218;42.874;25.320;2023-07-22T06:00:44;14.47;;;8.17;;
20114;SDS011;10218;42.874;25.320;2023-07-22T06:03:13;14.67;;;7.53;;
20114;SDS011;10218;42.874;25.320;2023-07-22T06:05:40;17.23;;;7.50;;
20114;SDS011;10218;42.874;25.320;2023-07-22T06:08:07;10.73;;;7.60;;
20114;SDS011;10218;42.874;25.320;2023-07-22T06:10:34;13.70;;;7.80;;
20114;SDS011;10218;42.874;25.320;2023-07-22T06:13:04;19.83;;;7.13;;
20114;SDS011;10218;42.874;25.320;2023-07-22T06:15:31;17.47;;;7.70;;
20114;SDS011;10218;42.874;25.320;2023-07-22T06:18:00;17.10;;;7.37;;
20114;SDS011;10218;42.874;25.320;2023-07-22T06:20:27;13.87;;;7.30;;
20114;SDS011;10218;42.874;25.320;2023-07-22T06:22:55;11.87;;;7.50;;
20114;SDS011;10218;42.874;25.320;2023-07-22T06:25:22;12.27;;;7.73;;
20114;SDS011;10218;42.874;25.320;2023-07-22T06:27:49;14.87;;;7.40;;
20114;SDS011;10218;42.874;25.320;2023-07-22T06:30:16;19.53;;;7.70;;
20114;SDS011;10218;42.874;25.320;2023-07-22T06:32:44;13.83;;;7.27;;
20114;SDS011;10218;42.874;25.320;2023-07-22T06:35:11;14.40;;;7.27;;
20114;SDS011;10218;42.874;25.320;2023-07-22T06:37:38;20.57;;;7.70;;
20114;SDS011;10218;42.874;25.320;2023-07-22T06:40:06;15.83;;;7.20;;
20114;SDS011;10218;42.874;25.320;2023-07-22T06:42:33;14.67;;;7.50;;
20114;SDS011;10218;42.874;25.320;2023-07-22T06:45:01;23.23;;;7.10;;
20114;SDS011;10218;42.874;25.320;2023-07-22T06:47:29;11.53;;;6.63;;
20114;SDS011;10218;42.874;25.320;2023-07-22T06:49:56;15.80;;;6.83;;
20114;SDS011;10218;42.874;25.320;2023-07-22T06:52:23;10.63;;;6.83;;
20114;SDS011;10218;42.874;25.320;2023-07-22T06:54:51;12.37;;;6.87;;
20114;SDS011;10218;42.874;25.320;2023-07-22T06:57:18;18.77;;;7.20;;
20114;SDS011;10218;42.874;25.320;2023-07-22T06:59:45;12.30;;;6.53;;
20114;SDS011;10218;42.874;25.320;2023-07-22T07:02:12;14.80;;;6.77;;
20114;SDS011;10218;42.874;25.320;2023-07-22T07:04:39;20.93;;;9.60;;
20114;SDS011;10218;42.874;25.320;2023-07-22T07:07:07;12.37;;;6.67;;
20114;SDS011;10218;42.874;25.320;2023-07-22T07:09:34;11.97;;;6.57;;
20114;SDS011;10218;42.874;25.320;2023-07-22T07:12:02;9.80;;;6.40;;
20114;SDS011;10218;42.874;25.320;2023-07-22T07:14:29;19.97;;;6.93;;
20114;SDS011;10218;42.874;25.320;2023-07-22T07:16:57;15.30;;;6.60;;
20114;SDS011;10218;42.874;25.320;2023-07-22T07:19:24;16.90;;;6.73;;
20114;SDS011;10218;42.874;25.320;2023-07-22T07:21:51;9.90;;;6.07;;
20114;SDS011;10218;42.874;25.320;2023-07-22T07:24:18;9.80;;;6.93;;
20114;SDS011;10218;42.874;25.320;2023-07-22T07:26:45;24.63;;;7.75;;
20114;SDS011;10218;42.874;25.320;2023-07-22T07:29:12;13.70;;;6.10;;
20114;SDS011;10218;42.874;25.320;2023-07-22T07:31:41;17.98;;;6.97;;
20114;SDS011;10218;42.874;25.320;2023-07-22T07:34:08;14.82;;;5.72;;
20114;SDS011;10218;42.874;25.320;2023-07-22T07:36:35;17.85;;;6.12;;
20114;SDS011;10218;42.874;25.320;2023-07-22T07:39:02;9.63;;;5.70;;
20114;SDS011;10218;42.874;25.320;2023-07-22T07:41:30;11.98;;;5.80;;
20114;SDS011;10218;42.874;25.320;2023-07-22T07:43:57;14.55;;;5.28;;
20114;SDS011;10218;42.874;25.320;2023-07-22T07:46:25;8.53;;;4.50;;
20114;SDS011;10218;42.874;25.320;2023-07-22T07:48:54;15.25;;;4.87;;
20114;SDS011;10218;42.874;25.320;2023-07-22T07:51:23;12.32;;;5.15;;
20114;SDS011;10218;42.874;25.320;2023-07-22T07:53:53;10.48;;;5.53;;
20114;SDS011;10218;42.874;25.320;2023-07-22T07:56:21;13.43;;;5.55;;
20114;SDS011;10218;42.874;25.320;2023-07-22T07:58:49;10.73;;;5.18;;
20114;SDS011;10218;42.874;25.320;2023-07-22T08:01:17;12.90;;;5.53;;
20114;SDS011;10218;42.874;25.320;2023-07-22T08:03:45;16.27;;;5.62;;
20114;SDS011;10218;42.874;25.320;2023-07-22T08:06:12;10.93;;;5.20;;
20114;SDS011;10218;42.874;25.320;2023-07-22T08:08:40;14.82;;;5.50;;
20114;SDS011;10218;42.874;25.320;2023-07-22T08:11:08;15.00;;;5.35;;
20114;SDS011;10218;42.874;25.320;2023-07-22T08:13:37;16.25;;;6.35;;
20114;SDS011;10218;42.874;25.320;2023-07-22T08:16:05;9.13;;;4.80;;
20114;SDS011;10218;42.874;25.320;2023-07-22T08:18:34;14.68;;;4.68;;
20114;SDS011;10218;42.874;25.320;2023-07-22T08:21:02;9.68;;;4.22;;
20114;SDS011;10218;42.874;25.320;2023-07-22T08:23:30;13.15;;;4.28;;
20114;SDS011;10218;42.874;25.320;2023-07-22T08:25:58;8.63;;;4.30;;
20114;SDS011;10218;42.874;25.320;2023-07-22T08:28:25;11.73;;;4.80;;
20114;SDS011;10218;42.874;25.320;2023-07-22T08:30:55;8.18;;;4.55;;
20114;SDS011;10218;42.874;25.320;2023-07-22T08:33:23;7.12;;;4.15;;
20114;SDS011;10218;42.874;25.320;2023-07-22T08:35:56;11.57;;;4.50;;
20114;SDS011;10218;42.874;25.320;2023-07-22T08:38:24;13.95;;;4.53;;
20114;SDS011;10218;42.874;25.320;2023-07-22T08:40:51;9.18;;;4.15;;
20114;SDS011;10218;42.874;25.320;2023-07-22T08:43:19;10.85;;;4.68;;
20114;SDS011;10218;42.874;25.320;2023-07-22T08:45:49;10.38;;;4.37;;
20114;SDS011;10218;42.874;25.320;2023-07-22T08:48:18;9.50;;;4.22;;
20114;SDS011;10218;42.874;25.320;2023-07-22T08:50:55;9.38;;;4.57;;
20114;SDS011;10218;42.874;25.320;2023-07-22T08:53:26;10.38;;;4.78;;
20114;SDS011;10218;42.874;25.320;2023-07-22T08:55:54;9.80;;;4.10;;
20114;SDS011;10218;42.874;25.320;2023-07-22T08:58:21;11.75;;;4.28;;
20114;SDS011;10218;42.874;25.320;2023-07-22T09:00:50;13.55;;;4.28;;
20114;SDS011;10218;42.874;25.320;2023-07-22T09:03:18;15.65;;;4.25;;
20114;SDS011;10218;42.874;25.320;2023-07-22T09:05:46;10.35;;;4.95;;
20114;SDS011;10218;42.874;25.320;2023-07-22T09:08:14;10.88;;;4.55;;
20114;SDS011;10218;42.874;25.320;2023-07-22T09:10:44;10.88;;;4.20;;
20114;SDS011;10218;42.874;25.320;2023-07-22T09:13:13;11.60;;;4.03;;
20114;SDS011;10218;42.874;25.320;2023-07-22T09:15:41;10.05;;;4.45;;
20114;SDS011;10218;42.874;25.320;2023-07-22T09:18:09;10.32;;;5.00;;
20114;SDS011;10218;42.874;25.320;2023-07-22T09:20:36;8.80;;;4.20;;
20114;SDS011;10218;42.874;25.320;2023-07-22T09:23:03;11.98;;;4.43;;
20114;SDS011;10218;42.874;25.320;2023-07-22T09:25:39;10.35;;;4.43;;
20114;SDS011;10218;42.874;25.320;2023-07-22T09:28:06;7.65;;;4.45;;
20114;SDS011;10218;42.874;25.320;2023-07-22T09:30:35;11.73;;;4.45;;
20114;SDS011;10218;42.874;25.320;2023-07-22T09:33:06;10.75;;;4.72;;
20114;SDS011;10218;42.874;25.320;2023-07-22T09:35:49;7.95;;;4.40;;
20114;SDS011;10218;42.874;25.320;2023-07-22T09:38:23;9.90;;;4.45;;
20114;SDS011;10218;42.874;25.320;2023-07-22T09:40:51;9.93;;;4.87;;
20114;SDS011;10218;42.874;25.320;2023-07-22T09:43:19;6.82;;;4.18;;
20114;SDS011;10218;42.874;25.320;2023-07-22T09:45:49;13.90;;;4.57;;
20114;SDS011;10218;42.874;25.320;2023-07-22T09:48:16;10.93;;;4.47;;
20114;SDS011;10218;42.874;25.320;2023-07-22T09:50:43;12.80;;;4.90;;
20114;SDS011;10218;42.874;25.320;2023-07-22T09:53:14;10.48;;;4.93;;
20114;SDS011;10218;42.874;25.320;2023-07-22T09:55:42;11.90;;;4.97;;
20114;SDS011;10218;42.874;25.320;2023-07-22T09:58:10;15.00;;;4.78;;
20114;SDS011;10218;42.874;25.320;2023-07-22T10:00:42;12.90;;;4.60;;
20114;SDS011;10218;42.874;25.320;2023-07-22T10:03:15;11.63;;;4.68;;
20114;SDS011;10218;42.874;25.320;2023-07-22T10:05:45;12.57;;;4.70;;
20114;SDS011;10218;42.874;25.320;2023-07-22T10:08:15;12.00;;;4.85;;
20114;SDS011;10218;42.874;25.320;2023-07-22T10:10:45;10.95;;;4.80;;
20114;SDS011;10218;42.874;25.320;2023-07-22T10:13:14;10.25;;;4.65;;
20114;SDS011;10218;42.874;25.320;2023-07-22T10:15:41;13.27;;;5.05;;
20114;SDS011;10218;42.874;25.320;2023-07-22T10:18:08;8.98;;;4.70;;
20114;SDS011;10218;42.874;25.320;2023-07-22T10:20:37;7.35;;;4.65;;
20114;SDS011;10218;42.874;25.320;2023-07-22T10:23:06;9.32;;;4.35;;
20114;SDS011;10218;42.874;25.320;2023-07-22T10:25:34;12.65;;;5.40;;
20114;SDS011;10218;42.874;25.320;2023-07-22T10:28:03;13.13;;;4.97;;
20114;SDS011;10218;42.874;25.320;2023-07-22T10:30:32;8.93;;;4.60;;
20114;SDS011;10218;42.874;25.320;2023-07-22T10:33:00;9.50;;;5.25;;
20114;SDS011;10218;42.874;25.320;2023-07-22T10:38:07;15.77;;;5.10;;
20114;SDS011;10218;42.874;25.320;2023-07-22T10:40:45;17.60;;;5.35;;
20114;SDS011;10218;42.874;25.320;2023-07-22T10:43:26;15.13;;;5.10;;
20114;SDS011;10218;42.874;25.320;2023-07-22T10:46:00;15.25;;;4.93;;
20114;SDS011;10218;42.874;25.320;2023-07-22T10:48:38;9.63;;;5.18;;
20114;SDS011;10218;42.874;25.320;2023-07-22T10:51:07;10.98;;;5.12;;
20114;SDS011;10218;42.874;25.320;2023-07-22T10:53:42;12.80;;;5.07;;
20114;SDS011;10218;42.874;25.320;2023-07-22T11:06:30;13.10;;;5.07;;
20114;SDS011;10218;42.874;25.320;2023-07-22T11:08:57;12.68;;;5.40;;
20114;SDS011;10218;42.874;25.320;2023-07-22T11:11:38;15.18;;;5.72;;
20114;SDS011;10218;42.874;25.320;2023-07-22T11:14:13;9.32;;;5.47;;
20114;SDS011;10218;42.874;25.320;2023-07-22T11:16:41;10.05;;;5.32;;
20114;SDS011;10218;42.874;25.320;2023-07-22T11:19:10;19.60;;;5.80;;
20114;SDS011;10218;42.874;25.320;2023-07-22T11:21:36;13.73;;;5.47;;
20114;SDS011;10218;42.874;25.320;2023-07-22T11:24:04;15.18;;;5.65;;
20114;SDS011;10218;42.874;25.320;2023-07-22T11:26:32;12.40;;;5.10;;
20114;SDS011;10218;42.874;25.320;2023-07-22T11:29:00;16.62;;;5.60;;
20114;SDS011;10218;42.874;25.320;2023-07-22T11:31:32;10.57;;;5.10;;
20114;SDS011;10218;42.874;25.320;2023-07-22T11:34:09;9.75;;;4.82;;
20114;SDS011;10218;42.874;25.320;2023-07-22T11:36:37;11.35;;;5.30;;
20114;SDS011;10218;42.874;25.320;2023-07-22T11:39:05;12.52;;;4.85;;
20114;SDS011;10218;42.874;25.320;2023-07-22T11:41:35;14.10;;;4.53;;
20114;SDS011;10218;42.874;25.320;2023-07-22T11:44:03;15.02;;;5.65;;
20114;SDS011;10218;42.874;25.320;2023-07-22T11:46:46;16.30;;;5.18;;
20114;SDS011;10218;42.874;25.320;2023-07-22T11:49:25;12.18;;;5.10;;
20114;SDS011;10218;42.874;25.320;2023-07-22T11:51:56;10.40;;;5.10;;
20114;SDS011;10218;42.874;25.320;2023-07-22T11:54:24;12.50;;;4.95;;
20114;SDS011;10218;42.874;25.320;2023-07-22T11:56:53;13.73;;;5.53;;
20114;SDS011;10218;42.874;25.320;2023-07-22T11:59:34;16.27;;;5.40;;
20114;SDS011;10218;42.874;25.320;2023-07-22T12:02:03;12.13;;;5.43;;
20114;SDS011;10218;42.874;25.320;2023-07-22T12:04:34;14.87;;;5.30;;
20114;SDS011;10218;42.874;25.320;2023-07-22T12:07:01;12.98;;;5.12;;
20114;SDS011;10218;42.874;25.320;2023-07-22T12:09:30;17.10;;;5.30;;
20114;SDS011;10218;42.874;25.320;2023-07-22T12:11:58;11.82;;;5.00;;
20114;SDS011;10218;42.874;25.320;2023-07-22T12:14:33;11.43;;;5.32;;
20114;SDS011;10218;42.874;25.320;2023-07-22T12:17:02;15.00;;;5.28;;
20114;SDS011;10218;42.874;25.320;2023-07-22T12:19:29;12.37;;;5.35;;
20114;SDS011;10218;42.874;25.320;2023-07-22T12:21:57;15.52;;;5.43;;
20114;SDS011;10218;42.874;25.320;2023-07-22T12:24:24;15.13;;;5.40;;
20114;SDS011;10218;42.874;25.320;2023-07-22T12:26:51;10.27;;;5.22;;
20114;SDS011;10218;42.874;25.320;2023-07-22T12:29:18;13.18;;;5.37;;
20114;SDS011;10218;42.874;25.320;2023-07-22T12:31:46;15.80;;;4.95;;
20114;SDS011;10218;42.874;25.320;2023-07-22T12:34:13;15.50;;;5.20;;
20114;SDS011;10218;42.874;25.320;2023-07-22T12:36:40;18.08;;;5.28;;
20114;SDS011;10218;42.874;25.320;2023-07-22T12:39:08;16.23;;;5.40;;
20114;SDS011;10218;42.874;25.320;2023-07-22T12:41:35;14.38;;;5.45;;
20114;SDS011;10218;42.874;25.320;2023-07-22T12:44:02;13.55;;;5.25;;
20114;SDS011;10218;42.874;25.320;2023-07-22T12:46:30;16.98;;;5.32;;
20114;SDS011;10218;42.874;25.320;2023-07-22T12:48:57;13.05;;;5.53;;
20114;SDS011;10218;42.874;25.320;2023-07-22T12:51:24;15.77;;;5.65;;
20114;SDS011;10218;42.874;25.320;2023-07-22T12:53:52;15.48;;;5.25;;
20114;SDS011;10218;42.874;25.320;2023-07-22T12:56:19;15.52;;;5.07;;
20114;SDS011;10218;42.874;25.320;2023-07-22T12:58:46;16.15;;;5.47;;
20114;SDS011;10218;42.874;25.320;2023-07-22T13:01:13;12.82;;;5.05;;
20114;SDS011;10218;42.874;25.320;2023-07-22T13:03:40;15.77;;;5.18;;
20114;SDS011;10218;42.874;25.320;2023-07-22T13:06:07;14.48;;;5.00;;
20114;SDS011;10218;42.874;25.320;2023-07-22T13:08:34;13.68;;;5.07;;
20114;SDS011;10218;42.874;25.320;2023-07-22T13:11:02;19.95;;;5.45;;
20114;SDS011;10218;42.874;25.320;2023-07-22T13:13:30;17.48;;;5.57;;
20114;SDS011;10218;42.874;25.320;2023-07-22T13:15:57;19.23;;;5.55;;
20114;SDS011;10218;42.874;25.320;2023-07-22T13:18:24;16.73;;;5.10;;
20114;SDS011;10218;42.874;25.320;2023-07-22T13:20:51;13.45;;;5.00;;
20114;SDS011;10218;42.874;25.320;2023-07-22T13:23:18;15.38;;;4.95;;
20114;SDS011;10218;42.874;25.320;2023-07-22T13:25:45;17.30;;;5.20;;
20114;SDS011;10218;42.874;25.320;2023-07-22T13:28:13;15.25;;;4.97;;
20114;SDS011;10218;42.874;25.320;2023-07-22T13:30:40;15.00;;;5.45;;
20114;SDS011;10218;42.874;25.320;2023-07-22T13:33:07;13.77;;;5.07;;
20114;SDS011;10218;42.874;25.320;2023-07-22T13:35:34;19.30;;;5.78;;
20114;SDS011;10218;42.874;25.320;2023-07-22T13:38:01;13.13;;;5.10;;
20114;SDS011;10218;42.874;25.320;2023-07-22T13:40:28;17.17;;;5.50;;
20114;SDS011;10218;42.874;25.320;2023-07-22T13:42:55;18.02;;;5.12;;
20114;SDS011;10218;42.874;25.320;2023-07-22T13:45:23;17.10;;;5.10;;
20114;SDS011;10218;42.874;25.320;2023-07-22T13:47:50;15.73;;;4.80;;
20114;SDS011;10218;42.874;25.320;2023-07-22T13:50:17;16.52;;;5.60;;
20114;SDS011;10218;42.874;25.320;2023-07-22T13:52:45;20.25;;;5.43;;
20114;SDS011;10218;42.874;25.320;2023-07-22T13:55:12;17.48;;;5.65;;
20114;SDS011;10218;42.874;25.320;2023-07-22T13:57:39;11.75;;;5.03;;
20114;SDS011;10218;42.874;25.320;2023-07-22T14:00:06;21.10;;;5.20;;
20114;SDS011;10218;42.874;25.320;2023-07-22T14:02:37;15.20;;;5.60;;
20114;SDS011;10218;42.874;25.320;2023-07-22T14:05:05;16.73;;;5.20;;
20114;SDS011;10218;42.874;25.320;2023-07-22T14:07:32;19.20;;;6.00;;
20114;SDS011;10218;42.874;25.320;2023-07-22T14:09:59;20.65;;;5.72;;
20114;SDS011;10218;42.874;25.320;2023-07-22T14:12:27;17.42;;;5.32;;
20114;SDS011;10218;42.874;25.320;2023-07-22T14:14:54;10.45;;;5.15;;
20114;SDS011;10218;42.874;25.320;2023-07-22T14:17:21;16.85;;;5.37;;
20114;SDS011;10218;42.874;25.320;2023-07-22T14:19:48;17.12;;;5.55;;
20114;SDS011;10218;42.874;25.320;2023-07-22T14:22:15;18.98;;;5.50;;
20114;SDS011;10218;42.874;25.320;2023-07-22T14:24:42;17.05;;;5.32;;
20114;SDS011;10218;42.874;25.320;2023-07-22T14:27:09;16.83;;;5.28;;
20114;SDS011;10218;42.874;25.320;2023-07-22T14:29:36;15.68;;;5.25;;
20114;SDS011;10218;42.874;25.320;2023-07-22T14:32:03;15.77;;;5.37;;
20114;SDS011;10218;42.874;25.320;2023-07-22T14:34:31;13.82;;;5.05;;
20114;SDS011;10218;42.874;25.320;2023-07-22T14:36:58;14.95;;;5.30;;
20114;SDS011;10218;42.874;25.320;2023-07-22T14:39:25;17.52;;;5.05;;
20114;SDS011;10218;42.874;25.320;2023-07-22T14:41:52;21.42;;;5.85;;